sensor_id;sensor_type;location;lat;lon;timestamp;pressure;altitude;pressure_sealevel;temperature;humidity
78857;BME280;68207;50.078;19.936;2023-05-14T00:02:13;99499.00;;;10.33;62.08
78857;BME280;68207;50.078;19.936;2023-05-14T00:04:38;99500.14;;;10.31;62.34
78857;BME280;68207;50.078;19.936;2023-05-14T00:07:04;99496.28;;;10.27;62.45
78857;BME280;68207;50.078;19.936;2023-05-14T00:09:31;99499.48;;;10.25;62.60
78857;BME280;68207;50.078;19.936;2023-05-14T00:11:56;99500.95;;;10.23;62.57
78857;BME280;68207;50.078;19.936;2023-05-14T00:14:22;99502.70;;;10.20;62.75
78857;BME280;68207;50.078;19.936;2023-05-14T00:16:47;99499.42;;;10.17;62.76
78857;BME280;68207;50.078;19.936;2023-05-14T00:19:12;99498.90;;;10.13;62.95
78857;BME280;68207;50.078;19.936;2023-05-14T00:21:38;99494.64;;;10.08;63.03
78857;BME280;68207;50.078;19.936;2023-05-14T00:24:03;99495.30;;;10.07;63.10
78857;BME280;68207;50.078;19.936;2023-05-14T00:26:28;99500.99;;;10.08;63.40
78857;BME280;68207;50.078;19.936;2023-05-14T00:28:54;99497.71;;;10.07;63.46
78857;BME280;68207;50.078;19.936;2023-05-14T00:31:19;99506.23;;;10.07;63.47
78857;BME280;68207;50.078;19.936;2023-05-14T00:33:44;99506.48;;;10.06;63.57
78857;BME280;68207;50.078;19.936;2023-05-14T00:36:10;99507.20;;;10.05;63.39
78857;BME280;68207;50.078;19.936;2023-05-14T00:38:35;99506.55;;;10.02;63.34
78857;BME280;68207;50.078;19.936;2023-05-14T00:41:00;99508.11;;;9.99;63.48
78857;BME280;68207;50.078;19.936;2023-05-14T00:43:25;99508.59;;;9.96;63.81
78857;BME280;68207;50.078;19.936;2023-05-14T00:45:52;99508.34;;;9.93;63.84
78857;BME280;68207;50.078;19.936;2023-05-14T00:48:19;99508.00;;;9.92;63.79
78857;BME280;68207;50.078;19.936;2023-05-14T00:50:44;99506.85;;;9.89;63.86
78857;BME280;68207;50.078;19.936;2023-05-14T00:53:10;99505.60;;;9.86;64.03
78857;BME280;68207;50.078;19.936;2023-05-14T00:55:37;99510.13;;;9.83;64.07
78857;BME280;68207;50.078;19.936;2023-05-14T00:58:06;99510.68;;;9.79;64.14
78857;BME280;68207;50.078;19.936;2023-05-14T01:00:34;99513.86;;;9.79;64.03
78857;BME280;68207;50.078;19.936;2023-05-14T01:02:59;99510.80;;;9.80;64.23
78857;BME280;68207;50.078;19.936;2023-05-14T01:08:31;99517.56;;;9.79;64.43
78857;BME280;68207;50.078;19.936;2023-05-14T01:11:05;99516.66;;;9.78;64.32
78857;BME280;68207;50.078;19.936;2023-05-14T01:13:45;99516.23;;;9.75;64.50
78857;BME280;68207;50.078;19.936;2023-05-14T01:16:14;99514.71;;;9.71;64.61
78857;BME280;68207;50.078;19.936;2023-05-14T01:18:42;99518.42;;;9.67;64.78
78857;BME280;68207;50.078;19.936;2023-05-14T01:21:38;99514.52;;;9.64;64.75
78857;BME280;68207;50.078;19.936;2023-05-14T01:24:05;99510.45;;;9.58;64.96
78857;BME280;68207;50.078;19.936;2023-05-14T01:26:31;99507.20;;;9.54;65.05
78857;BME280;68207;50.078;19.936;2023-05-14T01:29:04;99503.81;;;9.51;65.02
78857;BME280;68207;50.078;19.936;2023-05-14T01:31:35;99505.40;;;9.49;65.12
78857;BME280;68207;50.078;19.936;2023-05-14T01:34:04;99503.73;;;9.50;65.39
78857;BME280;68207;50.078;19.936;2023-05-14T01:36:30;99509.38;;;9.48;65.29
78857;BME280;68207;50.078;19.936;2023-05-14T01:38:57;99508.18;;;9.46;65.36
78857;BME280;68207;50.078;19.936;2023-05-14T01:41:24;99507.33;;;9.44;65.28
78857;BME280;68207;50.078;19.936;2023-05-14T01:43:50;99509.75;;;9.41;65.52
78857;BME280;68207;50.078;19.936;2023-05-14T01:46:19;99506.85;;;9.38;65.51
78857;BME280;68207;50.078;19.936;2023-05-14T01:48:44;99506.16;;;9.35;65.63
78857;BME280;68207;50.078;19.936;2023-05-14T01:51:10;99505.39;;;9.32;65.43
78857;BME280;68207;50.078;19.936;2023-05-14T01:53:35;99505.96;;;9.30;65.59
78857;BME280;68207;50.078;19.936;2023-05-14T01:56:00;99503.02;;;9.25;65.71
78857;BME280;68207;50.078;19.936;2023-05-14T01:58:26;99501.77;;;9.22;65.68
78857;BME280;68207;50.078;19.936;2023-05-14T02:00:51;99501.95;;;9.18;65.70
78857;BME280;68207;50.078;19.936;2023-05-14T02:03:16;99504.17;;;9.17;65.72
78857;BME280;68207;50.078;19.936;2023-05-14T02:05:42;99502.74;;;9.19;65.88
78857;BME280;68207;50.078;19.936;2023-05-14T02:08:07;99499.61;;;9.18;65.89
78857;BME280;68207;50.078;19.936;2023-05-14T02:10:32;99493.20;;;9.17;65.72
78857;BME280;68207;50.078;19.936;2023-05-14T02:12:57;99486.47;;;9.16;65.92
78857;BME280;68207;50.078;19.936;2023-05-14T02:15:23;99487.02;;;9.14;65.99
78857;BME280;68207;50.078;19.936;2023-05-14T02:17:48;99488.83;;;9.12;66.21
78857;BME280;68207;50.078;19.936;2023-05-14T02:20:14;99484.98;;;9.10;66.32
78857;BME280;68207;50.078;19.936;2023-05-14T02:22:39;99488.48;;;9.06;66.46
78857;BME280;68207;50.078;19.936;2023-05-14T02:25:07;99484.11;;;9.02;66.53
78857;BME280;68207;50.078;19.936;2023-05-14T02:27:32;99485.31;;;8.98;66.72
78857;BME280;68207;50.078;19.936;2023-05-14T02:29:58;99480.98;;;8.96;66.81
78857;BME280;68207;50.078;19.936;2023-05-14T02:32:25;99472.70;;;8.97;66.86
78857;BME280;68207;50.078;19.936;2023-05-14T02:34:50;99472.61;;;8.96;67.05
78857;BME280;68207;50.078;19.936;2023-05-14T02:37:16;99477.27;;;8.95;67.17
78857;BME280;68207;50.078;19.936;2023-05-14T02:39:41;99477.64;;;8.93;67.09
78857;BME280;68207;50.078;19.936;2023-05-14T02:42:06;99474.69;;;8.91;67.09
78857;BME280;68207;50.078;19.936;2023-05-14T02:44:32;99474.56;;;8.88;67.25
78857;BME280;68207;50.078;19.936;2023-05-14T02:46:57;99471.73;;;8.85;67.37
78857;BME280;68207;50.078;19.936;2023-05-14T02:49:22;99470.60;;;8.84;67.41
78857;BME280;68207;50.078;19.936;2023-05-14T02:51:47;99466.77;;;8.82;67.57
78857;BME280;68207;50.078;19.936;2023-05-14T02:54:13;99467.09;;;8.78;67.61
78857;BME280;68207;50.078;19.936;2023-05-14T02:56:40;99462.52;;;8.78;67.62
78857;BME280;68207;50.078;19.936;2023-05-14T02:59:05;99461.74;;;8.79;67.75
78857;BME280;68207;50.078;19.936;2023-05-14T03:01:31;99459.52;;;8.78;67.84
78857;BME280;68207;50.078;19.936;2023-05-14T03:03:56;99466.36;;;8.78;67.88
78857;BME280;68207;50.078;19.936;2023-05-14T03:06:21;99464.72;;;8.77;67.86
78857;BME280;68207;50.078;19.936;2023-05-14T03:08:47;99462.45;;;8.75;67.91
78857;BME280;68207;50.078;19.936;2023-05-14T03:11:12;99456.42;;;8.74;68.19
78857;BME280;68207;50.078;19.936;2023-05-14T03:13:37;99453.30;;;8.71;68.13
78857;BME280;68207;50.078;19.936;2023-05-14T03:16:03;99451.95;;;8.69;68.22
78857;BME280;68207;50.078;19.936;2023-05-14T03:18:28;99448.48;;;8.66;68.19
78857;BME280;68207;50.078;19.936;2023-05-14T03:20:54;99445.67;;;8.69;68.11
78857;BME280;68207;50.078;19.936;2023-05-14T03:23:20;99435.55;;;8.71;68.22
78857;BME280;68207;50.078;19.936;2023-05-14T03:25:45;99434.48;;;8.73;68.23
78857;BME280;68207;50.078;19.936;2023-05-14T03:28:11;99432.13;;;8.74;68.24
78857;BME280;68207;50.078;19.936;2023-05-14T03:30:36;99433.31;;;8.74;68.32
78857;BME280;68207;50.078;19.936;2023-05-14T03:33:01;99435.89;;;8.75;68.28
78857;BME280;68207;50.078;19.936;2023-05-14T03:35:29;99438.99;;;8.75;68.29
78857;BME280;68207;50.078;19.936;2023-05-14T03:37:54;99443.75;;;8.75;68.33
78857;BME280;68207;50.078;19.936;2023-05-14T03:40:23;99450.88;;;8.76;68.32
78857;BME280;68207;50.078;19.936;2023-05-14T03:42:48;99450.48;;;8.77;68.29
78857;BME280;68207;50.078;19.936;2023-05-14T03:45:13;99454.05;;;8.82;68.29
78857;BME280;68207;50.078;19.936;2023-05-14T03:47:39;99452.16;;;8.89;68.29
78857;BME280;68207;50.078;19.936;2023-05-14T03:50:05;99455.25;;;8.93;68.26
78857;BME280;68207;50.078;19.936;2023-05-14T03:52:31;99458.23;;;8.97;68.29
78857;BME280;68207;50.078;19.936;2023-05-14T03:54:56;99454.08;;;9.01;68.24
78857;BME280;68207;50.078;19.936;2023-05-14T03:57:21;99452.52;;;9.04;68.29
78857;BME280;68207;50.078;19.936;2023-05-14T03:59:46;99451.70;;;9.09;68.23
78857;BME280;68207;50.078;19.936;2023-05-14T04:02:12;99449.73;;;9.13;68.16
78857;BME280;68207;50.078;19.936;2023-05-14T04:04:37;99444.80;;;9.18;68.30
78857;BME280;68207;50.078;19.936;2023-05-14T04:07:03;99444.11;;;9.22;68.24
78857;BME280;68207;50.078;19.936;2023-05-14T04:09:28;99446.45;;;9.25;68.21
78857;BME280;68207;50.078;19.936;2023-05-14T04:11:54;99446.61;;;9.30;68.24
78857;BME280;68207;50.078;19.936;2023-05-14T04:14:19;99447.00;;;9.39;68.07
78857;BME280;68207;50.078;19.936;2023-05-14T04:16:44;99449.36;;;9.45;67.89
78857;BME280;68207;50.078;19.936;2023-05-14T04:19:10;99442.19;;;9.50;67.78
78857;BME280;68207;50.078;19.936;2023-05-14T04:21:35;99443.20;;;9.57;67.88
78857;BME280;68207;50.078;19.936;2023-05-14T04:24:00;99443.09;;;9.63;67.86
78857;BME280;68207;50.078;19.936;2023-05-14T04:26:26;99438.41;;;9.71;67.67
78857;BME280;68207;50.078;19.936;2023-05-14T04:28:51;99440.42;;;9.78;67.49
78857;BME280;68207;50.078;19.936;2023-05-14T04:31:17;99435.95;;;9.83;67.44
78857;BME280;68207;50.078;19.936;2023-05-14T04:33:42;99434.63;;;9.88;67.31
78857;BME280;68207;50.078;19.936;2023-05-14T04:36:07;99439.04;;;9.93;67.12
78857;BME280;68207;50.078;19.936;2023-05-14T04:38:33;99444.23;;;9.95;66.97
78857;BME280;68207;50.078;19.936;2023-05-14T04:40:58;99445.75;;;9.99;66.97
78857;BME280;68207;50.078;19.936;2023-05-14T04:43:24;99449.64;;;10.06;66.71
78857;BME280;68207;50.078;19.936;2023-05-14T04:45:49;99452.52;;;10.16;66.94
78857;BME280;68207;50.078;19.936;2023-05-14T04:48:16;99448.88;;;10.31;67.05
78857;BME280;68207;50.078;19.936;2023-05-14T04:50:41;99451.37;;;10.49;66.83
78857;BME280;68207;50.078;19.936;2023-05-14T04:53:08;99450.77;;;10.65;66.25
78857;BME280;68207;50.078;19.936;2023-05-14T04:55:33;99445.67;;;10.75;65.82
78857;BME280;68207;50.078;19.936;2023-05-14T04:57:59;99445.52;;;10.81;65.53
78857;BME280;68207;50.078;19.936;2023-05-14T05:00:24;99449.38;;;10.88;65.30
78857;BME280;68207;50.078;19.936;2023-05-14T05:02:49;99444.98;;;10.93;65.00
78857;BME280;68207;50.078;19.936;2023-05-14T05:05:14;99443.38;;;10.98;64.75
78857;BME280;68207;50.078;19.936;2023-05-14T05:07:40;99442.03;;;11.05;64.81
78857;BME280;68207;50.078;19.936;2023-05-14T05:10:06;99439.95;;;11.10;64.65
78857;BME280;68207;50.078;19.936;2023-05-14T05:12:31;99440.59;;;11.16;64.63
78857;BME280;68207;50.078;19.936;2023-05-14T05:14:56;99436.85;;;11.21;64.38
78857;BME280;68207;50.078;19.936;2023-05-14T05:17:22;99434.29;;;11.25;64.09
78857;BME280;68207;50.078;19.936;2023-05-14T05:19:48;99433.73;;;11.30;64.03
78857;BME280;68207;50.078;19.936;2023-05-14T05:22:13;99434.30;;;11.36;63.92
78857;BME280;68207;50.078;19.936;2023-05-14T05:24:39;99435.67;;;11.43;63.52
78857;BME280;68207;50.078;19.936;2023-05-14T05:27:04;99430.60;;;11.50;63.33
78857;BME280;68207;50.078;19.936;2023-05-14T05:29:30;99426.02;;;11.57;63.13
78857;BME280;68207;50.078;19.936;2023-05-14T05:31:55;99428.47;;;11.65;62.95
78857;BME280;68207;50.078;19.936;2023-05-14T05:34:20;99430.53;;;11.72;62.79
78857;BME280;68207;50.078;19.936;2023-05-14T05:36:46;99423.00;;;11.80;62.84
78857;BME280;68207;50.078;19.936;2023-05-14T05:39:11;99420.82;;;11.87;62.35
78857;BME280;68207;50.078;19.936;2023-05-14T05:41:37;99413.21;;;11.95;62.36
78857;BME280;68207;50.078;19.936;2023-05-14T05:44:02;99410.17;;;12.03;62.22
78857;BME280;68207;50.078;19.936;2023-05-14T05:46:27;99411.30;;;12.12;61.98
78857;BME280;68207;50.078;19.936;2023-05-14T05:48:53;99410.15;;;12.20;61.85
78857;BME280;68207;50.078;19.936;2023-05-14T05:51:18;99405.44;;;12.29;61.37
78857;BME280;68207;50.078;19.936;2023-05-14T05:53:43;99403.21;;;12.36;60.98
78857;BME280;68207;50.078;19.936;2023-05-14T05:56:08;99405.15;;;12.43;60.73
78857;BME280;68207;50.078;19.936;2023-05-14T05:58:34;99410.20;;;12.50;60.39
78857;BME280;68207;50.078;19.936;2023-05-14T06:00:59;99412.34;;;12.56;59.87
78857;BME280;68207;50.078;19.936;2023-05-14T06:03:25;99411.37;;;12.61;59.67
78857;BME280;68207;50.078;19.936;2023-05-14T06:05:51;99410.48;;;12.67;59.46
78857;BME280;68207;50.078;19.936;2023-05-14T06:08:19;99414.61;;;12.73;59.28
78857;BME280;68207;50.078;19.936;2023-05-14T06:10:44;99415.87;;;12.79;59.18
78857;BME280;68207;50.078;19.936;2023-05-14T06:13:10;99413.61;;;12.87;59.02
78857;BME280;68207;50.078;19.936;2023-05-14T06:15:35;99414.11;;;12.96;59.14
78857;BME280;68207;50.078;19.936;2023-05-14T06:18:01;99415.54;;;13.05;58.83
78857;BME280;68207;50.078;19.936;2023-05-14T06:20:26;99410.08;;;13.15;58.74
78857;BME280;68207;50.078;19.936;2023-05-14T06:22:51;99410.41;;;13.25;58.39
78857;BME280;68207;50.078;19.936;2023-05-14T06:25:17;99408.83;;;13.32;58.01
78857;BME280;68207;50.078;19.936;2023-05-14T06:27:42;99403.45;;;13.39;57.80
78857;BME280;68207;50.078;19.936;2023-05-14T06:30:08;99404.48;;;13.47;57.67
78857;BME280;68207;50.078;19.936;2023-05-14T06:32:33;99405.20;;;13.55;57.50
78857;BME280;68207;50.078;19.936;2023-05-14T06:34:58;99399.94;;;13.64;57.34
78857;BME280;68207;50.078;19.936;2023-05-14T06:37:24;99404.12;;;13.72;57.13
78857;BME280;68207;50.078;19.936;2023-05-14T06:39:49;99403.10;;;13.81;56.74
78857;BME280;68207;50.078;19.936;2023-05-14T06:42:15;99398.58;;;13.90;56.65
78857;BME280;68207;50.078;19.936;2023-05-14T06:44:41;99393.28;;;14.02;56.77
78857;BME280;68207;50.078;19.936;2023-05-14T06:47:06;99392.02;;;14.14;56.25
78857;BME280;68207;50.078;19.936;2023-05-14T06:49:33;99391.65;;;14.25;55.94
78857;BME280;68207;50.078;19.936;2023-05-14T06:51:58;99384.88;;;14.39;55.73
78857;BME280;68207;50.078;19.936;2023-05-14T06:54:24;99380.33;;;14.53;55.67
78857;BME280;68207;50.078;19.936;2023-05-14T06:56:49;99375.86;;;14.67;55.57
78857;BME280;68207;50.078;19.936;2023-05-14T06:59:15;99384.55;;;14.83;55.16
78857;BME280;68207;50.078;19.936;2023-05-14T07:01:40;99387.88;;;14.98;54.68
78857;BME280;68207;50.078;19.936;2023-05-14T07:04:05;99384.90;;;15.09;54.07
78857;BME280;68207;50.078;19.936;2023-05-14T07:06:30;99382.09;;;15.19;54.18
78857;BME280;68207;50.078;19.936;2023-05-14T07:08:56;99384.81;;;15.30;53.80
78857;BME280;68207;50.078;19.936;2023-05-14T07:11:22;99387.70;;;15.40;53.75
78857;BME280;68207;50.078;19.936;2023-05-14T07:13:47;99384.80;;;15.54;53.21
78857;BME280;68207;50.078;19.936;2023-05-14T07:16:12;99386.00;;;15.69;52.93
78857;BME280;68207;50.078;19.936;2023-05-14T07:18:38;99385.30;;;15.82;52.25
78857;BME280;68207;50.078;19.936;2023-05-14T07:21:03;99385.60;;;15.95;51.98
78857;BME280;68207;50.078;19.936;2023-05-14T07:23:31;99388.13;;;16.11;51.59
78857;BME280;68207;50.078;19.936;2023-05-14T07:25:56;99389.96;;;16.30;51.20
78857;BME280;68207;50.078;19.936;2023-05-14T07:28:21;99392.21;;;16.45;50.80
78857;BME280;68207;50.078;19.936;2023-05-14T07:30:46;99394.12;;;16.59;50.31
78857;BME280;68207;50.078;19.936;2023-05-14T07:33:12;99398.83;;;16.73;50.04
78857;BME280;68207;50.078;19.936;2023-05-14T07:35:37;99398.42;;;16.89;49.92
78857;BME280;68207;50.078;19.936;2023-05-14T07:38:02;99401.81;;;17.08;49.49
78857;BME280;68207;50.078;19.936;2023-05-14T07:40:29;99402.30;;;17.25;49.31
78857;BME280;68207;50.078;19.936;2023-05-14T07:42:55;99401.86;;;17.43;48.92
78857;BME280;68207;50.078;19.936;2023-05-14T07:45:20;99398.58;;;17.65;48.72
78857;BME280;68207;50.078;19.936;2023-05-14T07:47:45;99395.52;;;17.89;47.92
78857;BME280;68207;50.078;19.936;2023-05-14T07:50:11;99388.37;;;18.07;46.85
78857;BME280;68207;50.078;19.936;2023-05-14T07:52:36;99390.73;;;18.19;46.36
78857;BME280;68207;50.078;19.936;2023-05-14T07:55:02;99381.33;;;18.28;46.31
78857;BME280;68207;50.078;19.936;2023-05-14T07:57:28;99379.52;;;18.41;46.29
78857;BME280;68207;50.078;19.936;2023-05-14T07:59:53;99375.64;;;18.51;45.87
78857;BME280;68207;50.078;19.936;2023-05-14T08:02:18;99372.48;;;18.55;45.35
78857;BME280;68207;50.078;19.936;2023-05-14T08:04:44;99365.35;;;18.58;45.49
78857;BME280;68207;50.078;19.936;2023-05-14T08:07:09;99362.22;;;18.73;45.15
78857;BME280;68207;50.078;19.936;2023-05-14T08:09:35;99357.54;;;18.91;45.15
78857;BME280;68207;50.078;19.936;2023-05-14T08:12:00;99351.77;;;19.14;44.88
78857;BME280;68207;50.078;19.936;2023-05-14T08:14:25;99349.73;;;19.37;44.70
78857;BME280;68207;50.078;19.936;2023-05-14T08:16:51;99351.41;;;19.61;44.16
78857;BME280;68207;50.078;19.936;2023-05-14T08:19:17;99352.70;;;19.87;43.65
78857;BME280;68207;50.078;19.936;2023-05-14T08:21:42;99348.55;;;20.07;43.06
78857;BME280;68207;50.078;19.936;2023-05-14T08:24:08;99343.54;;;20.23;42.42
78857;BME280;68207;50.078;19.936;2023-05-14T08:26:33;99339.98;;;20.42;41.93
78857;BME280;68207;50.078;19.936;2023-05-14T08:28:58;99339.64;;;20.55;41.58
78857;BME280;68207;50.078;19.936;2023-05-14T08:31:23;99337.02;;;20.64;40.86
78857;BME280;68207;50.078;19.936;2023-05-14T08:33:49;99331.95;;;20.71;40.89
78857;BME280;68207;50.078;19.936;2023-05-14T08:36:14;99329.32;;;20.86;40.52
78857;BME280;68207;50.078;19.936;2023-05-14T08:38:39;99324.23;;;21.00;40.43
78857;BME280;68207;50.078;19.936;2023-05-14T08:41:07;99323.15;;;21.17;40.05
78857;BME280;68207;50.078;19.936;2023-05-14T08:46:28;99321.65;;;21.26;39.73
78857;BME280;68207;50.078;19.936;2023-05-14T08:48:59;99326.70;;;21.34;39.94
78857;BME280;68207;50.078;19.936;2023-05-14T08:51:28;99324.74;;;21.49;39.53
78857;BME280;68207;50.078;19.936;2023-05-14T08:53:53;99321.75;;;21.64;39.42
78857;BME280;68207;50.078;19.936;2023-05-14T08:56:19;99318.08;;;21.85;39.41
78857;BME280;68207;50.078;19.936;2023-05-14T08:58:45;99321.50;;;22.04;39.10
78857;BME280;68207;50.078;19.936;2023-05-14T09:01:10;99316.11;;;22.20;38.96
78857;BME280;68207;50.078;19.936;2023-05-14T09:03:36;99309.11;;;22.40;38.74
78857;BME280;68207;50.078;19.936;2023-05-14T09:06:03;99302.20;;;22.51;38.50
78857;BME280;68207;50.078;19.936;2023-05-14T09:08:29;99306.33;;;22.68;38.32
78857;BME280;68207;50.078;19.936;2023-05-14T09:10:55;99308.39;;;22.85;38.16
78857;BME280;68207;50.078;19.936;2023-05-14T09:13:20;99303.02;;;22.93;37.36
78857;BME280;68207;50.078;19.936;2023-05-14T09:15:46;99295.72;;;22.97;37.02
78857;BME280;68207;50.078;19.936;2023-05-14T09:18:12;99295.82;;;23.08;37.23
78857;BME280;68207;50.078;19.936;2023-05-14T09:20:37;99290.84;;;23.25;37.00
78857;BME280;68207;50.078;19.936;2023-05-14T09:23:03;99292.25;;;23.44;36.71
78857;BME280;68207;50.078;19.936;2023-05-14T09:25:31;99287.66;;;23.65;36.35
78857;BME280;68207;50.078;19.936;2023-05-14T09:27:57;99287.25;;;23.86;35.88
78857;BME280;68207;50.078;19.936;2023-05-14T09:30:23;99285.89;;;23.94;35.03
78857;BME280;68207;50.078;19.936;2023-05-14T09:32:52;99281.30;;;23.98;34.98
78857;BME280;68207;50.078;19.936;2023-05-14T09:35:19;99279.33;;;24.11;34.76
78857;BME280;68207;50.078;19.936;2023-05-14T09:37:47;99272.70;;;24.19;34.28
78857;BME280;68207;50.078;19.936;2023-05-14T09:40:13;99263.71;;;24.23;34.16
78857;BME280;68207;50.078;19.936;2023-05-14T09:42:39;99266.02;;;24.31;34.19
78857;BME280;68207;50.078;19.936;2023-05-14T09:45:07;99261.89;;;24.44;33.96
78857;BME280;68207;50.078;19.936;2023-05-14T09:47:32;99263.92;;;24.57;33.69
78857;BME280;68207;50.078;19.936;2023-05-14T09:49:57;99257.75;;;24.69;33.47
78857;BME280;68207;50.078;19.936;2023-05-14T09:52:23;99254.08;;;24.86;33.90
78857;BME280;68207;50.078;19.936;2023-05-14T09:54:52;99248.53;;;25.09;33.44
78857;BME280;68207;50.078;19.936;2023-05-14T09:57:18;99250.79;;;25.33;33.11
78857;BME280;68207;50.078;19.936;2023-05-14T09:59:43;99249.02;;;25.46;32.84
78857;BME280;68207;50.078;19.936;2023-05-14T10:02:19;99250.87;;;25.45;32.04
78857;BME280;68207;50.078;19.936;2023-05-14T10:04:47;99252.90;;;25.42;32.47
78857;BME280;68207;50.078;19.936;2023-05-14T10:07:15;99248.58;;;25.51;32.45
78857;BME280;68207;50.078;19.936;2023-05-14T10:09:42;99238.01;;;25.60;32.27
78857;BME280;68207;50.078;19.936;2023-05-14T10:12:08;99232.20;;;25.70;32.54
78857;BME280;68207;50.078;19.936;2023-05-14T10:14:42;99232.71;;;25.85;32.28
78857;BME280;68207;50.078;19.936;2023-05-14T10:17:13;99229.88;;;25.95;31.78
78857;BME280;68207;50.078;19.936;2023-05-14T10:19:46;99233.10;;;25.97;31.32
78857;BME280;68207;50.078;19.936;2023-05-14T10:22:13;99220.70;;;26.00;31.56
78857;BME280;68207;50.078;19.936;2023-05-14T10:24:41;99213.98;;;26.04;31.72
78857;BME280;68207;50.078;19.936;2023-05-14T10:27:07;99209.73;;;26.11;31.49
78857;BME280;68207;50.078;19.936;2023-05-14T10:29:34;99204.05;;;26.10;31.59
78857;BME280;68207;50.078;19.936;2023-05-14T10:32:03;99200.63;;;26.05;31.15
78857;BME280;68207;50.078;19.936;2023-05-14T10:34:49;99193.46;;;25.93;31.28
78857;BME280;68207;50.078;19.936;2023-05-14T10:37:16;99189.06;;;25.92;31.41
78857;BME280;68207;50.078;19.936;2023-05-14T10:42:33;99174.13;;;26.10;31.19
78857;BME280;68207;50.078;19.936;2023-05-14T10:45:06;99169.84;;;26.15;30.81
78857;BME280;68207;50.078;19.936;2023-05-14T10:47:34;99167.81;;;26.14;30.36
78857;BME280;68207;50.078;19.936;2023-05-14T10:50:08;99166.91;;;26.02;30.12
78857;BME280;68207;50.078;19.936;2023-05-14T10:52:35;99160.69;;;25.88;30.77
78857;BME280;68207;50.078;19.936;2023-05-14T10:55:03;99159.08;;;25.93;31.31
78857;BME280;68207;50.078;19.936;2023-05-14T10:57:34;99149.31;;;26.04;31.19
78857;BME280;68207;50.078;19.936;2023-05-14T11:00:01;99149.26;;;26.03;30.95
78857;BME280;68207;50.078;19.936;2023-05-14T11:02:29;99150.68;;;26.07;30.96
78857;BME280;68207;50.078;19.936;2023-05-14T11:04:58;99145.16;;;26.18;30.76
78857;BME280;68207;50.078;19.936;2023-05-14T11:07:28;99142.23;;;26.32;30.55
78857;BME280;68207;50.078;19.936;2023-05-14T11:10:08;99140.13;;;26.44;30.57
78857;BME280;68207;50.078;19.936;2023-05-14T11:12:36;99136.86;;;26.51;30.17
78857;BME280;68207;50.078;19.936;2023-05-14T11:15:04;99133.38;;;26.57;30.19
78857;BME280;68207;50.078;19.936;2023-05-14T11:17:30;99128.86;;;26.59;30.02
78857;BME280;68207;50.078;19.936;2023-05-14T11:19:57;99121.58;;;26.57;29.88
78857;BME280;68207;50.078;19.936;2023-05-14T11:22:23;99117.29;;;26.53;30.26
78857;BME280;68207;50.078;19.936;2023-05-14T11:24:49;99117.12;;;26.57;30.21
78857;BME280;68207;50.078;19.936;2023-05-14T11:27:14;99117.27;;;26.58;30.11
78857;BME280;68207;50.078;19.936;2023-05-14T11:29:44;99114.63;;;26.53;30.27
78857;BME280;68207;50.078;19.936;2023-05-14T11:32:10;99114.08;;;26.54;30.23
78857;BME280;68207;50.078;19.936;2023-05-14T11:34:35;99106.19;;;26.56;30.12
78857;BME280;68207;50.078;19.936;2023-05-14T11:37:05;99111.20;;;26.53;30.44
78857;BME280;68207;50.078;19.936;2023-05-14T11:39:31;99116.57;;;26.59;30.52
78857;BME280;68207;50.078;19.936;2023-05-14T11:42:10;99116.35;;;26.61;30.09
78857;BME280;68207;50.078;19.936;2023-05-14T11:44:37;99112.44;;;26.47;29.78
78857;BME280;68207;50.078;19.936;2023-05-14T11:47:03;99103.09;;;26.29;29.65
78857;BME280;68207;50.078;19.936;2023-05-14T11:49:29;99099.42;;;26.23;30.12
78857;BME280;68207;50.078;19.936;2023-05-14T11:52:00;99102.21;;;26.22;30.21
78857;BME280;68207;50.078;19.936;2023-05-14T11:54:30;99103.96;;;26.20;29.93
78857;BME280;68207;50.078;19.936;2023-05-14T11:56:56;99102.21;;;26.13;29.93
78857;BME280;68207;50.078;19.936;2023-05-14T11:59:30;99100.55;;;25.97;30.02
78857;BME280;68207;50.078;19.936;2023-05-14T12:01:56;99098.67;;;25.81;30.08
78857;BME280;68207;50.078;19.936;2023-05-14T12:04:22;99088.33;;;25.76;30.09
78857;BME280;68207;50.078;19.936;2023-05-14T12:06:51;99082.58;;;25.74;30.07
78857;BME280;68207;50.078;19.936;2023-05-14T12:09:18;99077.09;;;25.75;29.94
78857;BME280;68207;50.078;19.936;2023-05-14T12:11:44;99070.30;;;25.81;30.15
78857;BME280;68207;50.078;19.936;2023-05-14T12:14:19;99064.67;;;25.88;30.09
78857;BME280;68207;50.078;19.936;2023-05-14T12:16:45;99061.47;;;25.95;30.23
78857;BME280;68207;50.078;19.936;2023-05-14T12:19:12;99061.65;;;25.94;29.89
78857;BME280;68207;50.078;19.936;2023-05-14T12:21:38;99052.92;;;25.85;29.61
78857;BME280;68207;50.078;19.936;2023-05-14T12:24:11;99042.21;;;25.72;30.23
78857;BME280;68207;50.078;19.936;2023-05-14T12:26:37;99040.79;;;25.70;30.49
78857;BME280;68207;50.078;19.936;2023-05-14T12:29:05;99034.92;;;25.75;30.44
78857;BME280;68207;50.078;19.936;2023-05-14T12:31:34;99032.23;;;25.79;30.35
78857;BME280;68207;50.078;19.936;2023-05-14T12:34:00;99021.57;;;25.78;30.24
78857;BME280;68207;50.078;19.936;2023-05-14T12:36:25;99019.95;;;25.78;30.15
78857;BME280;68207;50.078;19.936;2023-05-14T12:38:59;99016.11;;;25.71;30.10
78857;BME280;68207;50.078;19.936;2023-05-14T12:41:29;99019.80;;;25.62;30.20
78857;BME280;68207;50.078;19.936;2023-05-14T12:43:54;99017.73;;;25.58;30.05
78857;BME280;68207;50.078;19.936;2023-05-14T12:46:20;99016.55;;;25.53;29.75
78857;BME280;68207;50.078;19.936;2023-05-14T12:48:45;99019.89;;;25.42;29.25
78857;BME280;68207;50.078;19.936;2023-05-14T12:51:11;99017.90;;;25.32;29.48
78857;BME280;68207;50.078;19.936;2023-05-14T12:53:36;99012.67;;;25.19;29.59
78857;BME280;68207;50.078;19.936;2023-05-14T12:56:01;99007.67;;;25.15;29.97
78857;BME280;68207;50.078;19.936;2023-05-14T12:58:27;99002.23;;;25.15;29.74